createdAt,value
2018-09-03T00:00:38.118Z,1014.04
2018-09-03T00:01:38.104Z,1014.07
2018-09-03T00:02:38.088Z,1014.03
2018-09-03T00:03:38.071Z,1014.02
2018-09-03T00:04:38.059Z,1014.04
2018-09-03T00:05:38.041Z,1013.98
2018-09-03T00:06:38.027Z,1013.98
2018-09-03T00:07:38.013Z,1013.95
2018-09-03T00:08:37.998Z,1013.92
2018-09-03T00:09:37.984Z,1013.91
2018-09-03T00:10:37.972Z,1013.87
2018-09-03T00:11:37.953Z,1013.84
2018-09-03T00:12:37.937Z,1013.82
2018-09-03T00:13:37.923Z,1013.81
2018-09-03T00:14:37.907Z,1013.77
2018-09-03T00:15:37.893Z,1013.79
2018-09-03T00:16:37.876Z,1013.75
2018-09-03T00:17:37.861Z,1013.74
2018-09-03T00:18:37.853Z,1013.71
2018-09-03T00:19:37.835Z,1013.69
2018-09-03T00:20:37.817Z,1013.71
2018-09-03T00:21:37.811Z,1013.69
2018-09-03T00:22:37.796Z,1013.67
2018-09-03T00:23:37.772Z,1013.65
2018-09-03T00:24:37.762Z,1013.62
2018-09-03T00:25:37.741Z,1013.59
2018-09-03T00:26:37.735Z,1013.58
2018-09-03T00:27:37.711Z,1013.59
2018-09-03T00:28:37.699Z,1013.56
2018-09-03T00:29:37.684Z,1013.58
2018-09-03T00:30:37.669Z,1013.59
2018-09-03T00:31:38.409Z,1013.54
2018-09-03T00:32:37.636Z,1013.55
2018-09-03T00:33:37.624Z,1013.60
2018-09-03T00:34:37.605Z,1013.59
2018-09-03T00:35:39.168Z,1013.61
2018-09-03T00:36:37.575Z,1013.58
2018-09-03T00:37:37.564Z,1013.55
2018-09-03T00:38:37.555Z,1013.53
2018-09-03T00:39:37.532Z,1013.52
2018-09-03T00:40:37.518Z,1013.58
2018-09-03T00:41:37.499Z,1013.56
2018-09-03T00:42:37.489Z,1013.52
2018-09-03T00:43:37.472Z,1013.51
2018-09-03T00:44:37.457Z,1013.51
2018-09-03T00:45:37.443Z,1013.50
2018-09-03T00:46:37.424Z,1013.49
2018-09-03T00:47:37.412Z,1013.49
2018-09-03T00:48:37.396Z,1013.45
2018-09-03T00:49:37.379Z,1013.45
2018-09-03T00:50:37.366Z,1013.44
2018-09-03T00:51:37.350Z,1013.45
2018-09-03T00:52:37.334Z,1013.39
2018-09-03T00:53:37.319Z,1013.38
2018-09-03T00:54:37.303Z,1013.36
2018-09-03T00:55:37.287Z,1013.34
2018-09-03T00:56:37.272Z,1013.35
2018-09-03T00:57:37.259Z,1013.30
2018-09-03T00:58:37.244Z,1013.34
2018-09-03T00:59:37.647Z,1013.35
2018-09-03T01:00:37.213Z,1013.33
2018-09-03T01:01:37.198Z,1013.34
2018-09-03T01:02:37.181Z,1013.34
2018-09-03T01:03:37.171Z,1013.35
2018-09-03T01:04:37.151Z,1013.31
2018-09-03T01:05:37.136Z,1013.29
2018-09-03T01:06:37.122Z,1013.30
2018-09-03T01:07:37.105Z,1013.31
2018-09-03T01:08:37.093Z,1013.31
2018-09-03T01:09:37.076Z,1013.32
2018-09-03T01:10:37.062Z,1013.31
2018-09-03T01:11:37.047Z,1013.28
2018-09-03T01:12:37.030Z,1013.25
2018-09-03T01:13:37.018Z,1013.27
2018-09-03T01:14:37.000Z,1013.24
2018-09-03T01:15:36.986Z,1013.24
2018-09-03T01:16:36.969Z,1013.23
2018-09-03T01:17:36.962Z,1013.19
2018-09-03T01:18:36.938Z,1013.25
2018-09-03T01:19:36.924Z,1013.24
2018-09-03T01:20:36.907Z,1013.23
2018-09-03T01:21:36.893Z,1013.22
2018-09-03T01:22:36.886Z,1013.24
2018-09-03T01:23:36.861Z,1013.24
2018-09-03T01:24:36.846Z,1013.20
2018-09-03T01:25:36.833Z,1013.18
2018-09-03T01:26:36.815Z,1013.20
2018-09-03T01:27:36.884Z,1013.19
2018-09-03T01:28:36.785Z,1013.19
2018-09-03T01:29:36.791Z,1013.16
2018-09-03T01:30:36.754Z,1013.15
2018-09-03T01:31:36.741Z,1013.12
2018-09-03T01:32:36.723Z,1013.13
2018-09-03T01:33:36.708Z,1013.11
2018-09-03T01:34:36.704Z,1013.09
2018-09-03T01:35:36.677Z,1013.08
2018-09-03T01:36:36.662Z,1013.10
2018-09-03T01:37:36.650Z,1013.07
2018-09-03T01:38:36.636Z,1013.08
2018-09-03T01:39:36.619Z,1013.07
2018-09-03T01:40:36.602Z,1013.13
2018-09-03T01:41:36.587Z,1013.12
2018-09-03T01:42:36.572Z,1013.14
2018-09-03T01:43:36.557Z,1013.10
2018-09-03T01:44:36.539Z,1013.16
2018-09-03T01:45:36.526Z,1013.15
2018-09-03T01:46:36.510Z,1013.18
2018-09-03T01:47:36.493Z,1013.15
2018-09-03T01:48:36.479Z,1013.17
2018-09-03T01:49:36.463Z,1013.18
2018-09-03T01:50:36.449Z,1013.18
2018-09-03T01:51:36.433Z,1013.19
2018-09-03T01:52:36.420Z,1013.20
2018-09-03T01:53:36.401Z,1013.20
2018-09-03T01:54:36.389Z,1013.21
2018-09-03T01:55:36.373Z,1013.17
2018-09-03T01:56:36.357Z,1013.14
2018-09-03T01:57:36.344Z,1013.13
2018-09-03T01:58:36.325Z,1013.12
2018-09-03T01:59:36.311Z,1013.10
2018-09-03T02:00:36.295Z,1013.10
2018-09-03T02:01:36.283Z,1013.09
2018-09-03T02:02:36.268Z,1013.11
2018-09-03T02:03:36.253Z,1013.10
2018-09-03T02:04:36.233Z,1013.15
2018-09-03T02:05:36.218Z,1013.18
2018-09-03T02:06:36.204Z,1013.16
2018-09-03T02:07:36.188Z,1013.22
2018-09-03T02:08:36.177Z,1013.21
2018-09-03T02:09:36.159Z,1013.20
2018-09-03T02:10:36.144Z,1013.17
2018-09-03T02:11:36.125Z,1013.19
2018-09-03T02:12:36.111Z,1013.17
2018-09-03T02:13:36.095Z,1013.16
2018-09-03T02:14:36.083Z,1013.15
2018-09-03T02:15:36.063Z,1013.13
2018-09-03T02:16:36.052Z,1013.15
2018-09-03T02:17:36.034Z,1013.13
2018-09-03T02:18:36.021Z,1013.08
2018-09-03T02:19:36.002Z,1013.05
2018-09-03T02:20:35.989Z,1013.06
2018-09-03T02:21:35.972Z,1013.00
2018-09-03T02:22:35.960Z,1012.98
2018-09-03T02:23:35.946Z,1012.99
2018-09-03T02:24:35.927Z,1012.98
2018-09-03T02:25:35.921Z,1012.95
2018-09-03T02:26:35.902Z,1012.99
2018-09-03T02:27:35.879Z,1013.04
2018-09-03T02:28:35.866Z,1013.07
2018-09-03T02:29:35.850Z,1013.08
2018-09-03T02:30:35.836Z,1013.08
2018-09-03T02:31:35.827Z,1013.08
2018-09-03T02:32:35.803Z,1013.07
2018-09-03T02:33:35.790Z,1013.05
2018-09-03T02:34:35.773Z,1013.06
2018-09-03T02:35:35.758Z,1013.05
2018-09-03T02:36:35.742Z,1013.11
2018-09-03T02:37:35.728Z,1013.12
2018-09-03T02:38:35.722Z,1013.14
2018-09-03T02:39:35.695Z,1013.16
2018-09-03T02:40:35.682Z,1013.22
2018-09-03T02:41:35.665Z,1013.26
2018-09-03T02:42:35.650Z,1013.24
2018-09-03T02:43:35.633Z,1013.31
2018-09-03T02:44:35.621Z,1013.34
2018-09-03T02:45:35.603Z,1013.40
2018-09-03T02:46:35.600Z,1013.35
2018-09-03T02:47:35.571Z,1013.36
2018-09-03T02:48:35.558Z,1013.36
2018-09-03T02:49:35.542Z,1013.36
2018-09-03T02:50:35.526Z,1013.37
2018-09-03T02:51:35.510Z,1013.33
2018-09-03T02:52:35.494Z,1013.33
2018-09-03T02:53:35.479Z,1013.35
2018-09-03T02:54:35.465Z,1013.39
2018-09-03T02:55:35.448Z,1013.40
2018-09-03T02:56:35.434Z,1013.42
2018-09-03T02:57:35.419Z,1013.46
2018-09-03T02:58:35.406Z,1013.44
2018-09-03T02:59:35.387Z,1013.50
2018-09-03T03:00:35.373Z,1013.49
2018-09-03T03:01:35.355Z,1013.49
2018-09-03T03:02:35.348Z,1013.45
2018-09-03T03:03:35.327Z,1013.46
2018-09-03T03:04:35.311Z,1013.47
2018-09-03T03:05:35.294Z,1013.44
2018-09-03T03:06:35.279Z,1013.47
2018-09-03T03:07:35.265Z,1013.41
2018-09-03T03:08:35.254Z,1013.34
2018-09-03T03:09:35.234Z,1013.24
2018-09-03T03:10:35.281Z,1013.12
2018-09-03T03:11:35.216Z,1013.07
2018-09-03T03:12:35.186Z,1013.01
2018-09-03T03:13:35.174Z,1012.93
2018-09-03T03:14:35.163Z,1012.89
2018-09-03T03:15:35.140Z,1012.82
2018-09-03T03:16:35.128Z,1012.82
2018-09-03T03:17:35.112Z,1012.75
2018-09-03T03:18:35.098Z,1012.78
2018-09-03T03:19:35.079Z,1012.75
2018-09-03T03:20:35.064Z,1012.78
2018-09-03T03:21:35.058Z,1012.82
2018-09-03T03:22:35.040Z,1012.80
2018-09-03T03:23:35.018Z,1012.79
2018-09-03T03:24:35.001Z,1012.78
2018-09-03T03:25:34.987Z,1012.77
2018-09-03T03:26:34.971Z,1012.82
2018-09-03T03:27:34.962Z,1012.81
2018-09-03T03:28:34.940Z,1012.83
2018-09-03T03:29:34.924Z,1012.87
2018-09-03T03:30:34.912Z,1012.90
2018-09-03T03:31:34.897Z,1012.91
2018-09-03T03:32:34.878Z,1012.89
2018-09-03T03:33:34.863Z,1012.90
2018-09-03T03:34:34.848Z,1012.88
2018-09-03T03:35:34.833Z,1012.82
2018-09-03T03:36:34.820Z,1012.78
2018-09-03T03:37:34.803Z,1012.77
2018-09-03T03:38:34.785Z,1012.76
2018-09-03T03:39:34.773Z,1012.75
2018-09-03T03:40:34.754Z,1012.70
2018-09-03T03:41:34.738Z,1012.71
2018-09-03T03:42:34.727Z,1012.64
2018-09-03T03:43:34.707Z,1012.65
2018-09-03T03:44:34.694Z,1012.66
2018-09-03T03:45:34.686Z,1012.64
2018-09-03T03:46:34.661Z,1012.65
2018-09-03T03:47:34.646Z,1012.67
2018-09-03T03:48:35.431Z,1012.68
2018-09-03T03:49:34.621Z,1012.65
2018-09-03T03:50:34.601Z,1012.58
2018-09-03T03:51:34.584Z,1012.57
2018-09-03T03:52:34.568Z,1012.60
2018-09-03T03:53:34.552Z,1012.56
2018-09-03T03:54:34.545Z,1012.56
2018-09-03T03:55:34.521Z,1012.58
2018-09-03T03:56:34.510Z,1012.59
2018-09-03T03:57:34.493Z,1012.60
2018-09-03T03:58:34.476Z,1012.58
2018-09-03T03:59:34.460Z,1012.58
2018-09-03T04:00:34.444Z,1012.56
2018-09-03T04:01:34.511Z,1012.57
2018-09-03T04:02:35.293Z,1012.56
2018-09-03T04:03:34.401Z,1012.56
2018-09-03T04:04:34.383Z,1012.59
2018-09-03T04:05:34.374Z,1012.56
2018-09-03T04:06:34.356Z,1012.57
2018-09-03T04:07:34.338Z,1012.55
2018-09-03T04:08:34.319Z,1012.55
2018-09-03T04:09:34.305Z,1012.51
2018-09-03T04:10:34.291Z,1012.49
2018-09-03T04:11:34.276Z,1012.50
2018-09-03T04:12:34.260Z,1012.48
2018-09-03T04:13:34.242Z,1012.46
2018-09-03T04:14:34.229Z,1012.54
2018-09-03T04:15:34.210Z,1012.53
2018-09-03T04:16:34.195Z,1012.52
2018-09-03T04:17:34.181Z,1012.54
2018-09-03T04:18:34.164Z,1012.51
2018-09-03T04:19:34.153Z,1012.50
2018-09-03T04:20:34.138Z,1012.49
2018-09-03T04:21:34.118Z,1012.47
2018-09-03T04:22:34.104Z,1012.46
2018-09-03T04:23:35.746Z,1012.47
2018-09-03T04:24:34.070Z,1012.47
2018-09-03T04:25:34.056Z,1012.44
2018-09-03T04:26:34.047Z,1012.44
2018-09-03T04:27:34.024Z,1012.41
2018-09-03T04:28:34.047Z,1012.39
2018-09-03T04:29:33.994Z,1012.37
2018-09-03T04:30:33.980Z,1012.35
2018-09-03T04:31:33.963Z,1012.35
2018-09-03T04:32:33.948Z,1012.31
2018-09-03T04:33:33.934Z,1012.30
2018-09-03T04:34:33.917Z,1012.30
2018-09-03T04:35:33.910Z,1012.30
2018-09-03T04:36:33.888Z,1012.30
2018-09-03T04:37:33.871Z,1012.32
2018-09-03T04:38:33.914Z,1012.36
2018-09-03T04:39:33.846Z,1012.36
2018-09-03T04:40:33.830Z,1012.39
2018-09-03T04:41:33.810Z,1012.39
2018-09-03T04:42:33.792Z,1012.36
2018-09-03T04:43:33.840Z,1012.36
2018-09-03T04:44:33.762Z,1012.40
2018-09-03T04:45:33.744Z,1012.40
2018-09-03T04:46:33.730Z,1012.39
2018-09-03T04:47:33.722Z,1012.42
2018-09-03T04:48:33.699Z,1012.47
2018-09-03T04:49:33.687Z,1012.45
2018-09-03T04:50:33.823Z,1012.41
2018-09-03T04:51:33.658Z,1012.43
2018-09-03T04:52:33.638Z,1012.46
2018-09-03T04:53:33.621Z,1012.47
2018-09-03T04:54:33.622Z,1012.47
2018-09-03T04:55:33.594Z,1012.44
2018-09-03T04:56:33.576Z,1012.45
2018-09-03T04:57:33.559Z,1012.41
2018-09-03T04:58:33.545Z,1012.38
2018-09-03T04:59:33.530Z,1012.34
2018-09-03T05:00:33.510Z,1012.27
2018-09-03T05:01:33.496Z,1012.29
2018-09-03T05:02:33.482Z,1012.32
2018-09-03T05:03:33.469Z,1012.34
2018-09-03T05:04:33.448Z,1012.35
2018-09-03T05:05:33.534Z,1012.29
2018-09-03T05:06:33.417Z,1012.29
2018-09-03T05:07:33.401Z,1012.26
2018-09-03T05:08:33.385Z,1012.24
2018-09-03T05:09:33.372Z,1012.26
2018-09-03T05:10:33.357Z,1012.21
2018-09-03T05:11:33.392Z,1012.22
2018-09-03T05:12:33.326Z,1012.20
2018-09-03T05:13:33.313Z,1012.27
2018-09-03T05:14:33.292Z,1012.23
2018-09-03T05:15:33.279Z,1012.25
2018-09-03T05:16:33.262Z,1012.24
2018-09-03T05:17:33.246Z,1012.22
2018-09-03T05:18:33.230Z,1012.24
2018-09-03T05:19:33.213Z,1012.23
2018-09-03T05:20:33.201Z,1012.22
2018-09-03T05:21:33.187Z,1012.27
2018-09-03T05:22:33.169Z,1012.25
2018-09-03T05:23:33.151Z,1012.25
2018-09-03T05:24:33.136Z,1012.26
2018-09-03T05:25:33.119Z,1012.24
2018-09-03T05:26:33.104Z,1012.25
2018-09-03T05:27:33.088Z,1012.24
2018-09-03T05:28:33.074Z,1012.26
2018-09-03T05:29:33.058Z,1012.26
2018-09-03T05:30:33.062Z,1012.27
2018-09-03T05:31:33.025Z,1012.31
2018-09-03T05:32:33.011Z,1012.27
2018-09-03T05:33:32.997Z,1012.31
2018-09-03T05:34:32.983Z,1012.34
2018-09-03T05:35:32.964Z,1012.30
2018-09-03T05:36:32.955Z,1012.33
2018-09-03T05:37:32.933Z,1012.37
2018-09-03T05:38:32.918Z,1012.40
2018-09-03T05:39:32.900Z,1012.38
2018-09-03T05:40:32.885Z,1012.38
2018-09-03T05:41:32.874Z,1012.40
2018-09-03T05:42:32.856Z,1012.40
2018-09-03T05:43:33.046Z,1012.38
2018-09-03T05:44:32.824Z,1012.39
2018-09-03T05:45:32.807Z,1012.36
2018-09-03T05:46:32.792Z,1012.32
2018-09-03T05:47:32.783Z,1012.31
2018-09-03T05:48:32.768Z,1012.35
2018-09-03T05:49:32.746Z,1012.27
2018-09-03T05:50:32.761Z,1012.25
2018-09-03T05:51:32.713Z,1012.26
2018-09-03T05:52:32.697Z,1012.27
2018-09-03T05:53:32.684Z,1012.27
2018-09-03T05:54:32.666Z,1012.25
2018-09-03T05:55:32.653Z,1012.24
2018-09-03T05:56:32.634Z,1012.27
2018-09-03T05:57:32.622Z,1012.28
2018-09-03T05:58:32.604Z,1012.29
2018-09-03T05:59:32.594Z,1012.29
2018-09-03T06:00:32.571Z,1012.33
2018-09-03T06:01:32.561Z,1012.33
2018-09-03T06:02:32.541Z,1012.34
2018-09-03T06:03:32.525Z,1012.34
2018-09-03T06:04:32.512Z,1012.31
2018-09-03T06:05:32.502Z,1012.30
2018-09-03T06:06:32.486Z,1012.30
2018-09-03T06:07:32.462Z,1012.31
2018-09-03T06:08:32.448Z,1012.32
2018-09-03T06:09:32.431Z,1012.32
2018-09-03T06:10:32.456Z,1012.33
2018-09-03T06:11:32.402Z,1012.32
2018-09-03T06:12:32.384Z,1012.28
2018-09-03T06:13:32.378Z,1012.26
2018-09-03T06:14:32.360Z,1012.27
2018-09-03T06:15:32.337Z,1012.29
2018-09-03T06:16:32.322Z,1012.27
2018-09-03T06:17:32.328Z,1012.29
2018-09-03T06:18:32.297Z,1012.26
2018-09-03T06:19:33.126Z,1012.22
2018-09-03T06:20:32.332Z,1012.23
2018-09-03T06:21:32.276Z,1012.21
2018-09-03T06:22:32.261Z,1012.23
2018-09-03T06:23:32.239Z,1012.24
2018-09-03T06:24:32.226Z,1012.22
2018-09-03T06:25:32.220Z,1012.26
2018-09-03T06:26:32.210Z,1012.26
2018-09-03T06:27:32.155Z,1012.27
2018-09-03T06:28:32.160Z,1012.30
2018-09-03T06:29:32.149Z,1012.29
2018-09-03T06:30:32.124Z,1012.31
2018-09-03T06:31:32.116Z,1012.30
2018-09-03T06:32:32.116Z,1012.30
2018-09-03T06:33:32.066Z,1012.28
2018-09-03T06:34:32.048Z,1012.32
2018-09-03T06:35:32.030Z,1012.31
2018-09-03T06:36:32.015Z,1012.27
2018-09-03T06:37:32.043Z,1012.31
2018-09-03T06:38:31.985Z,1012.31
2018-09-03T06:39:31.964Z,1012.31
2018-09-03T06:40:31.948Z,1012.33
2018-09-03T06:41:31.938Z,1012.33
2018-09-03T06:42:31.918Z,1012.27
2018-09-03T06:43:31.907Z,1012.27
2018-09-03T06:44:31.888Z,1012.28
2018-09-03T06:45:31.872Z,1012.24
2018-09-03T06:46:31.856Z,1012.28
2018-09-03T06:47:31.844Z,1012.28
2018-09-03T06:48:31.824Z,1012.29
2018-09-03T06:49:31.825Z,1012.30
2018-09-03T06:50:31.795Z,1012.28
2018-09-03T06:51:31.776Z,1012.33
2018-09-03T06:52:31.768Z,1012.33
2018-09-03T06:53:31.791Z,1012.32
2018-09-03T06:54:31.731Z,1012.35
2018-09-03T06:55:31.713Z,1012.36
2018-09-03T06:56:31.702Z,1012.37
2018-09-03T06:57:31.685Z,1012.34
2018-09-03T06:58:31.668Z,1012.32
2018-09-03T06:59:31.679Z,1012.34
2018-09-03T07:00:31.636Z,1012.36
2018-09-03T07:01:31.631Z,1012.36
2018-09-03T07:02:31.606Z,1012.31
2018-09-03T07:03:31.592Z,1012.28
2018-09-03T07:04:31.573Z,1012.24
2018-09-03T07:05:31.559Z,1012.29
2018-09-03T07:06:31.547Z,1012.24
2018-09-03T07:07:31.528Z,1012.26
2018-09-03T07:08:31.514Z,1012.28
2018-09-03T07:09:31.496Z,1012.25
2018-09-03T07:10:31.484Z,1012.21
2018-09-03T07:11:31.483Z,1012.27
2018-09-03T07:12:31.451Z,1012.28
2018-09-03T07:13:31.433Z,1012.29
2018-09-03T07:14:31.418Z,1012.37
2018-09-03T07:15:31.406Z,1012.39
2018-09-03T07:16:31.610Z,1012.37
2018-09-03T07:17:31.372Z,1012.39
2018-09-03T07:18:31.358Z,1012.45
2018-09-03T07:19:31.341Z,1012.44
2018-09-03T07:20:31.324Z,1012.45
2018-09-03T07:21:31.310Z,1012.44
2018-09-03T07:22:31.296Z,1012.49
2018-09-03T07:23:31.278Z,1012.46
2018-09-03T07:24:31.276Z,1012.50
2018-09-03T07:25:31.249Z,1012.47
2018-09-03T07:26:31.235Z,1012.46
2018-09-03T07:27:31.220Z,1012.44
2018-09-03T07:28:31.206Z,1012.42
2018-09-03T07:29:31.187Z,1012.41
2018-09-03T07:30:31.173Z,1012.40
2018-09-03T07:31:31.160Z,1012.41
2018-09-03T07:32:31.142Z,1012.42
2018-09-03T07:33:31.126Z,1012.40
2018-09-03T07:34:31.113Z,1012.39
2018-09-03T07:35:31.119Z,1012.39
2018-09-03T07:36:31.078Z,1012.33
2018-09-03T07:37:31.061Z,1012.31
2018-09-03T07:38:31.053Z,1012.33
2018-09-03T07:39:31.030Z,1012.32
2018-09-03T07:40:31.021Z,1012.34
2018-09-03T07:41:31.000Z,1012.32
2018-09-03T07:42:30.986Z,1012.32
2018-09-03T07:43:30.974Z,1012.30
2018-09-03T07:44:30.967Z,1012.31
2018-09-03T07:45:30.937Z,1012.29
2018-09-03T07:46:30.923Z,1012.31
2018-09-03T07:47:31.666Z,1012.29
2018-09-03T07:48:30.892Z,1012.26
2018-09-03T07:49:30.879Z,1012.21
2018-09-03T07:50:30.862Z,1012.17
2018-09-03T07:51:30.853Z,1012.15
2018-09-03T07:52:30.836Z,1012.13
2018-09-03T07:53:30.817Z,1012.12
2018-09-03T07:54:30.806Z,1012.09
2018-09-03T07:55:30.783Z,1012.08
2018-09-03T07:56:30.767Z,1012.08
2018-09-03T07:57:30.752Z,1012.06
2018-09-03T07:58:30.741Z,1012.03
2018-09-03T07:59:30.721Z,1012.01
2018-09-03T08:00:30.712Z,1011.97
2018-09-03T08:01:30.706Z,1011.95
2018-09-03T08:02:30.678Z,1011.95
2018-09-03T08:03:30.658Z,1011.90
2018-09-03T08:04:30.642Z,1011.92
2018-09-03T08:05:30.628Z,1011.95
2018-09-03T08:06:30.613Z,1011.94
2018-09-03T08:07:30.713Z,1011.95
2018-09-03T08:08:30.582Z,1011.99
2018-09-03T08:09:30.566Z,1011.98
2018-09-03T08:10:30.551Z,1012.01
2018-09-03T08:11:30.535Z,1011.99
2018-09-03T08:12:30.520Z,1011.97
2018-09-03T08:13:30.505Z,1011.93
2018-09-03T08:14:30.490Z,1011.92
2018-09-03T08:15:30.483Z,1011.93
2018-09-03T08:16:30.460Z,1011.91
2018-09-03T08:17:30.446Z,1011.90
2018-09-03T08:18:30.427Z,1011.90
2018-09-03T08:19:30.415Z,1011.88
2018-09-03T08:20:30.397Z,1011.83
2018-09-03T08:21:30.389Z,1011.85
2018-09-03T08:22:30.366Z,1011.87
2018-09-03T08:23:30.351Z,1011.89
2018-09-03T08:24:30.337Z,1011.88
2018-09-03T08:25:30.324Z,1011.87
2018-09-03T08:26:30.307Z,1011.82
2018-09-03T08:27:30.314Z,1011.81
2018-09-03T08:28:30.278Z,1011.80
2018-09-03T08:29:30.260Z,1011.82
2018-09-03T08:30:30.252Z,1011.79
2018-09-03T08:31:30.231Z,1011.77
2018-09-03T08:32:30.224Z,1011.81
2018-09-03T08:33:30.202Z,1011.80
2018-09-03T08:34:30.185Z,1011.77
2018-09-03T08:35:30.197Z,1011.79
2018-09-03T08:36:30.153Z,1011.82
2018-09-03T08:37:30.141Z,1011.78
2018-09-03T08:38:30.125Z,1011.81
2018-09-03T08:39:30.320Z,1011.83
2018-09-03T08:40:30.108Z,1011.82
2018-09-03T08:41:30.079Z,1011.85
2018-09-03T08:42:30.068Z,1011.85
2018-09-03T08:43:30.103Z,1011.88
2018-09-03T08:44:30.032Z,1011.90
2018-09-03T08:45:30.020Z,1011.87
2018-09-03T08:46:30.007Z,1011.87
2018-09-03T08:47:29.987Z,1011.89
2018-09-03T08:48:29.973Z,1011.91
2018-09-03T08:49:29.958Z,1011.93
2018-09-03T08:50:29.999Z,1011.91
2018-09-03T08:51:29.927Z,1011.92
2018-09-03T08:52:29.913Z,1011.91
2018-09-03T08:53:29.900Z,1011.89
2018-09-03T08:54:29.881Z,1011.91
2018-09-03T08:55:29.870Z,1011.89
2018-09-03T08:56:29.865Z,1011.92
2018-09-03T08:57:29.835Z,1011.91
2018-09-03T08:58:29.822Z,1011.91
2018-09-03T08:59:29.809Z,1011.91
2018-09-03T09:00:29.796Z,1011.97
2018-09-03T09:01:29.777Z,1011.95
2018-09-03T09:02:29.762Z,1011.93
2018-09-03T09:03:29.748Z,1011.91
2018-09-03T09:04:29.740Z,1011.90
2018-09-03T09:05:29.718Z,1011.91
2018-09-03T09:06:29.702Z,1011.84
2018-09-03T09:07:29.701Z,1011.82
2018-09-03T09:08:29.673Z,1011.80
2018-09-03T09:09:29.663Z,1011.78
2018-09-03T09:10:29.644Z,1011.77
2018-09-03T09:11:29.654Z,1011.77
2018-09-03T09:12:29.611Z,1011.76
2018-09-03T09:13:29.597Z,1011.75
2018-09-03T09:14:29.584Z,1011.79
2018-09-03T09:15:29.575Z,1011.79
2018-09-03T09:16:29.552Z,1011.79
2018-09-03T09:17:29.649Z,1011.78
2018-09-03T09:18:29.521Z,1011.75
2018-09-03T09:19:29.613Z,1011.79
2018-09-03T09:20:29.491Z,1011.80
2018-09-03T09:21:29.485Z,1011.81
2018-09-03T09:22:29.467Z,1011.78
2018-09-03T09:23:29.453Z,1011.77
2018-09-03T09:24:29.470Z,1011.75
2018-09-03T09:25:29.427Z,1011.75
2018-09-03T09:26:29.407Z,1011.70
2018-09-03T09:27:29.388Z,1011.74
2018-09-03T09:28:29.374Z,1011.67
2018-09-03T09:29:29.364Z,1011.67
2018-09-03T09:30:29.342Z,1011.72
2018-09-03T09:31:29.354Z,1011.72
2018-09-03T09:32:29.311Z,1011.70
2018-09-03T09:33:29.300Z,1011.72
2018-09-03T09:34:29.285Z,1011.74
2018-09-03T09:35:29.267Z,1011.73
2018-09-03T09:36:29.252Z,1011.71
2018-09-03T09:37:29.236Z,1011.70
2018-09-03T09:38:29.227Z,1011.67
2018-09-03T09:39:29.222Z,1011.68
2018-09-03T09:40:29.191Z,1011.77
2018-09-03T09:41:29.196Z,1011.70
2018-09-03T09:42:29.167Z,1011.70
2018-09-03T09:43:29.146Z,1011.64
2018-09-03T09:44:29.150Z,1011.66
2018-09-03T09:45:29.118Z,1011.66
2018-09-03T09:46:29.111Z,1011.62
2018-09-03T09:47:29.087Z,1011.61
2018-09-03T09:48:29.075Z,1011.59
2018-09-03T09:49:29.057Z,1011.59
2018-09-03T09:50:29.586Z,1011.57
2018-09-03T09:51:29.026Z,1011.53
2018-09-03T09:52:29.020Z,1011.50
2018-09-03T09:53:28.999Z,1011.49
2018-09-03T09:54:28.986Z,1011.50
2018-09-03T09:55:28.968Z,1011.48
2018-09-03T09:56:28.954Z,1011.49
2018-09-03T09:57:28.952Z,1011.48
2018-09-03T09:58:28.930Z,1011.50
2018-09-03T09:59:28.909Z,1011.46
2018-09-03T10:00:28.898Z,1011.52
2018-09-03T10:01:28.880Z,1011.55
2018-09-03T10:02:28.866Z,1011.49
2018-09-03T10:03:28.862Z,1011.48
2018-09-03T10:04:28.833Z,1011.50
2018-09-03T10:05:28.820Z,1011.45
2018-09-03T10:06:28.806Z,1011.48
2018-09-03T10:07:28.794Z,1011.50
2018-09-03T10:08:28.775Z,1011.43
2018-09-03T10:09:28.762Z,1011.42
2018-09-03T10:10:28.747Z,1011.43
2018-09-03T10:11:28.731Z,1011.43
2018-09-03T10:12:28.717Z,1011.37
2018-09-03T10:13:28.703Z,1011.37
2018-09-03T10:14:28.688Z,1011.38
2018-09-03T10:15:28.672Z,1011.35
2018-09-03T10:16:28.659Z,1011.34
2018-09-03T10:17:28.656Z,1011.33
2018-09-03T10:18:28.630Z,1011.34
2018-09-03T10:19:28.634Z,1011.36
2018-09-03T10:20:28.604Z,1011.30
2018-09-03T10:21:29.572Z,1011.31
2018-09-03T10:22:28.570Z,1011.31
2018-09-03T10:23:28.555Z,1011.31
2018-09-03T10:24:28.572Z,1011.28
2018-09-03T10:25:28.527Z,1011.22
2018-09-03T10:26:28.561Z,1011.20
2018-09-03T10:27:28.497Z,1011.18
2018-09-03T10:28:28.498Z,1011.18
2018-09-03T10:29:28.470Z,1011.19
2018-09-03T10:30:28.459Z,1011.18
2018-09-03T10:31:28.442Z,1011.18
2018-09-03T10:32:28.425Z,1011.21
2018-09-03T10:33:28.459Z,1011.25
2018-09-03T10:34:28.410Z,1011.21
2018-09-03T10:35:28.402Z,1011.22
2018-09-03T10:36:28.374Z,1011.24
2018-09-03T10:37:28.371Z,1011.24
2018-09-03T10:38:28.345Z,1011.23
2018-09-03T10:39:28.327Z,1011.20
2018-09-03T10:40:28.342Z,1011.20
2018-09-03T10:41:28.321Z,1011.18
2018-09-03T10:42:28.280Z,1011.14
2018-09-03T10:43:28.280Z,1011.12
2018-09-03T10:44:28.254Z,1011.11
2018-09-03T10:45:28.252Z,1011.14
2018-09-03T10:46:28.241Z,1011.08
2018-09-03T10:47:28.240Z,1011.09
2018-09-03T10:48:28.202Z,1011.03
2018-09-03T10:49:28.181Z,1011.03
2018-09-03T10:50:28.176Z,1011.01
2018-09-03T10:51:28.149Z,1011.00
2018-09-03T10:52:28.139Z,1011.00
2018-09-03T10:53:28.153Z,1011.02
2018-09-03T10:54:28.151Z,1011.00
2018-09-03T10:55:28.091Z,1011.05
2018-09-03T10:56:28.078Z,1011.03
2018-09-03T10:57:28.065Z,1011.03
2018-09-03T10:58:28.051Z,1011.01
2018-09-03T10:59:28.033Z,1011.03
2018-09-03T11:00:28.020Z,1011.03
2018-09-03T11:01:28.007Z,1010.98
2018-09-03T11:02:27.991Z,1011.01
2018-09-03T11:03:27.981Z,1010.97
2018-09-03T11:04:27.964Z,1010.99
2018-09-03T11:05:27.952Z,1011.01
2018-09-03T11:06:27.932Z,1011.01
2018-09-03T11:07:27.924Z,1010.97
2018-09-03T11:08:27.922Z,1011.04
2018-09-03T11:09:27.892Z,1011.03
2018-09-03T11:10:27.888Z,1011.03
2018-09-03T11:11:27.860Z,1011.02
2018-09-03T11:12:27.851Z,1011.02
2018-09-03T11:13:27.836Z,1011.02
2018-09-03T11:14:27.817Z,1010.98
2018-09-03T11:15:27.803Z,1011.00
2018-09-03T11:16:27.787Z,1010.99
2018-09-03T11:17:27.782Z,1010.99
2018-09-03T11:18:27.798Z,1010.96
2018-09-03T11:19:27.745Z,1010.97
2018-09-03T11:20:27.742Z,1010.96
2018-09-03T11:21:27.830Z,1010.97
2018-09-03T11:22:27.778Z,1010.94
2018-09-03T11:23:27.689Z,1010.93
2018-09-03T11:24:27.687Z,1010.91
2018-09-03T11:25:27.660Z,1010.90
2018-09-03T11:26:27.643Z,1010.90
2018-09-03T11:27:27.630Z,1010.90
2018-09-03T11:28:27.621Z,1010.90
2018-09-03T11:29:27.602Z,1010.85
2018-09-03T11:30:27.588Z,1010.86
2018-09-03T11:31:27.578Z,1010.86
2018-09-03T11:32:27.557Z,1010.78
2018-09-03T11:33:27.542Z,1010.78
2018-09-03T11:34:27.529Z,1010.81
2018-09-03T11:35:27.541Z,1010.82
2018-09-03T11:36:27.500Z,1010.80
2018-09-03T11:37:27.491Z,1010.82
2018-09-03T11:38:27.471Z,1010.79
2018-09-03T11:39:27.458Z,1010.80
2018-09-03T11:40:27.447Z,1010.79
2018-09-03T11:41:27.427Z,1010.78
2018-09-03T11:42:27.423Z,1010.78
2018-09-03T11:43:27.401Z,1010.79
2018-09-03T11:44:27.386Z,1010.81
2018-09-03T11:45:27.371Z,1010.76
2018-09-03T11:46:27.357Z,1010.76
2018-09-03T11:47:27.343Z,1010.76
2018-09-03T11:48:27.328Z,1010.76
2018-09-03T11:49:27.314Z,1010.76
2018-09-03T11:50:27.305Z,1010.79
2018-09-03T11:51:27.295Z,1010.74
2018-09-03T11:52:27.276Z,1010.75
2018-09-03T11:53:27.537Z,1010.76
2018-09-03T11:54:27.279Z,1010.78
2018-09-03T11:55:27.228Z,1010.81
2018-09-03T11:56:27.215Z,1010.75
2018-09-03T11:57:27.203Z,1010.81
2018-09-03T11:58:27.186Z,1010.80
2018-09-03T11:59:27.172Z,1010.78
2018-09-03T12:00:27.182Z,1010.80
2018-09-03T12:01:27.148Z,1010.82
2018-09-03T12:02:27.131Z,1010.82
2018-09-03T12:03:27.118Z,1010.76
2018-09-03T12:04:27.105Z,1010.73
2018-09-03T12:05:27.095Z,1010.75